Meath Environmental Platform

Observations for Trim Market St

Time AQI Temp °C Hum % Pres Pa CO μg/m³ H₂S μg/m³ NO μg/m³ NO₂ μg/m³ O₃ μg/m³ SO₂ μg/m³ PM1 μg/m³ PM2.5 μg/m³ PM10 μg/m³
Tuesday 14 July 2026
00:47 1 17.4 67 56,955 0.07 0 0 5.57 28.5 0 3.56 4.68 6.88
00:44 1 17.4 67 56,981 0.06 0 0 6.68 25.12 0 2.14 3.21 4.94
00:42 1 17.4 67 57,026 0.07 0 0 6.99 30.19 0 2.14 3.21 5.59
00:39 1 17.4 66 57,099 0.07 0 0 6.83 26.75 0 0 2.25 3.64
00:38 1 17.5 66 57,120 0.06 0 0 6.8 24.74 0 1.43 3.72 6.23
00:37 1 17.4 66 57,143 0.07 0 0 6.34 27.54 0 1.43 3.23 4.93
00:36 1 17.4 66 57,165 0.07 0 0 7.05 26.19 0 1.43 3.24 4.93
00:35 1 17.5 66 57,191 0.06 0 0 6.72 24.58 0 1.43 2.75 4.28
00:33 1 17.5 66 57,232 0.05 0 0 6.94 26.27 0 1.43 3.25 5.58
00:32 1 17.5 66 57,249 0.05 0 0 7.74 23.38 0 1.43 3.25 4.92
00:29 1 17.5 66 57,289 0.06 0 0 5.98 26.25 0 1.43 3.26 4.92
00:27 1 17.5 66 57,324 0.05 0 0 7.39 27.82 0 1.43 3.27 6.22
00:22 1 17.5 65 57,410 0.12 0 0 6.93 26.29 0 1.43 3.78 6.87
00:21 1 17.6 65 57,422 0.29 0 1.29 7.92 22.33 0 3.56 5.26 7.53
00:18 1 17.6 65 57,460 0.04 0 0 4.74 23.94 0 2.85 4.29 6.87
00:13 1 17.7 64 57,525 0.03 0 0 6.76 26.71 0 1.43 2.82 5.55
00:12 1 17.7 64 57,539 0.03 0 0 6.37 25.65 0 1.43 3.82 6.21
00:11 1 17.7 64 57,552 0.02 0 0 5.68 26.49 0 1.43 3.82 8.19
00:10 1 17.7 64 57,570 0.02 0 0 6.28 26.55 0 2.85 3.82 6.21
00:09 1 17.7 64 57,583 0.04 0 0 6.39 24.93 0 1.43 3.33 5.54